Pagina principale
METAR-TAF:

METAR-TAF

Aeroporti :

Aeroporto di Venezia-Tessera

Venezia, Italia

latitudine: 45-30N, longitudine: 012-20E, altezza: 2 m

Osservazione

Il bollettino è stato emesso 24 minuti fa, alle 10:20 UTC
Vento 4 kt da sud-ovest
Temperature 13°C
Umidità 88%
Pressione 1024 hPa
Visibilità: 6000 m

METAR: LIPZ 311020Z 23004KT 6000 NSC 13/11 Q1024 NOSIG

Ora: 11:44 (10:44 UTC)

Previsione

Il bollettino è stato emesso 5 ore e 44 minuti fa, alle 05:00 UTC
Previsione valida dal 31 alle 06 UTC al 01 alle 12 UTC
Vento 4 kt da direzioni variabili
Visibilità: 0300 m
Poco nuvoloso ad un'altezza di 2000 ft
nebbia
Evoluzione graduale
dal 31 alle 06 UTC al 31 alle 09 UTC
Visibilità: 4000 m

TAF: LIPZ 310500Z 3106/0112 VRB04KT 0300 FG FEW020 BECMG 3106/3109 4000

Osservazioni e previsioni meteorologiche di più di 4000 aeroporti (messaggi METAR e TAF).

Le stazioni disponibili sono rappresentate dai dischi gialli e rossi sulla carta.

Puntare il mouse per vedere il nome della stazione.

Clicca sopra per visualizzare le osservazioni e previsioni meteorologiche.

Per cambiare la mappa : fare clic sui pulsanti verdi con una croce nera per ingrandire, il pulsante verde con un trattino per diminuire, o sulla freccia verde per le mappe adiacenti.


METAR-TAF: